Main page
METAR-TAF:

METAR-TAF

Airports :

Benbecula Airport

Benbecula, Scotland

latitude: 57-28N, longitude: 007-22W, elevation: 6 m

Current weather observation

The report was made 34 minutes ago, at 07:20 UTC
Wind 22 kt from the Northwest
Temperature 6°C
Humidity 75%
Pressure 1015 hPa
Visibility 10 km or more
light rain

METAR: EGPL 200720Z AUTO 32022KT 9999 -RA BKN031/// OVC040/// 06/02 Q1015

Time: 07:54 (07:54 UTC)

Forecast

The report was made 3 hours and 0 minutes ago, at 04:54 UTC
Forecast valid from 20 at 06 UTC to 20 at 15 UTC
Wind 17 kt from the Northwest
Visibility 10 km or more
Scattered clouds at a height of 2000 ft
Temporary
from 20 at 06 UTC to 20 at 15 UTC
Wind 20 kt from the North/Northwest with gusts up to 30 kt
Probability 40% :
Temporary
from 20 at 06 UTC to 20 at 08 UTC
Visibility: 6000 m
Broken clouds at a height of 1200 ft

TAF: EGPL 200454Z 2006/2015 32017KT 9999 SCT020 TEMPO 2006/2015 33020G30KT PROB40 TEMPO 2006/2008 6000 BKN012

Weather observations and forecasts of more than 4000 airports (METAR and TAF reports).

The available stations are represented by yellow and red dots on the map.

Hover mouse over dot to see the name of the station.

Then click to see weather observations and forecasts.

To change the map : click on the green buttons with a black cross to zoom in, on the green button with a dash to zoom out, or on the green arrows for adjacent maps.


METAR-TAF: